createdAt,value
2022-12-11T00:00:27.390Z,45.58
2022-12-11T00:02:54.512Z,45.83
2022-12-11T00:05:21.279Z,41.35
2022-12-11T00:07:48.078Z,43.30
2022-12-11T00:10:14.919Z,43.25
2022-12-11T00:12:41.695Z,45.53
2022-12-11T00:15:09.406Z,46.67
2022-12-11T00:17:36.683Z,38.83
2022-12-11T00:20:05.224Z,40.25
2022-12-11T00:22:32.059Z,39.67
2022-12-11T00:24:58.858Z,37.00
2022-12-11T00:27:25.963Z,38.97
2022-12-11T00:29:52.751Z,38.65
2022-12-11T00:32:19.581Z,36.00
2022-12-11T00:34:46.672Z,36.80
2022-12-11T00:37:13.765Z,37.20
2022-12-11T00:39:40.631Z,37.42
2022-12-11T00:42:08.629Z,37.05
2022-12-11T00:44:36.175Z,38.65
2022-12-11T00:47:04.158Z,39.72
2022-12-11T00:49:30.982Z,37.20
2022-12-11T00:51:57.989Z,37.47
2022-12-11T00:54:24.818Z,41.35
2022-12-11T00:56:51.610Z,40.20
2022-12-11T00:59:18.743Z,41.33
2022-12-11T01:01:45.852Z,38.63
2022-12-11T01:04:12.642Z,43.35
2022-12-11T01:06:39.839Z,43.28
2022-12-11T01:09:25.345Z,40.38
2022-12-11T01:11:52.493Z,37.75
2022-12-11T01:14:19.799Z,37.97
2022-12-11T01:16:46.821Z,38.88
2022-12-11T01:19:13.735Z,35.50
2022-12-11T01:21:41.334Z,37.20
2022-12-11T01:24:08.248Z,36.25
2022-12-11T01:26:35.316Z,36.83
2022-12-11T01:29:02.474Z,39.17
2022-12-11T01:31:30.038Z,36.50
2022-12-11T01:33:57.162Z,35.60
2022-12-11T01:36:24.226Z,36.05
2022-12-11T01:38:51.163Z,36.35
2022-12-11T01:41:18.618Z,33.25
2022-12-11T01:44:27.095Z,37.80
2022-12-11T01:46:54.597Z,39.47
2022-12-11T01:49:25.472Z,34.17
2022-12-11T01:52:24.514Z,35.85
2022-12-11T01:54:51.655Z,35.80
2022-12-11T01:57:18.768Z,35.85
2022-12-11T01:59:46.917Z,36.05
2022-12-11T02:02:27.517Z,36.25
2022-12-11T02:04:54.712Z,35.75
2022-12-11T02:07:21.828Z,36.72
2022-12-11T02:09:50.047Z,36.50
2022-12-11T02:12:30.792Z,33.50
2022-12-11T02:15:31.771Z,33.63
2022-12-11T02:18:33.557Z,35.33
2022-12-11T02:21:13.685Z,35.03
2022-12-11T02:24:33.458Z,34.50
2022-12-11T02:27:14.877Z,31.33
2022-12-11T02:30:09.701Z,32.30
2022-12-11T02:32:56.822Z,32.72
2022-12-11T02:35:32.214Z,30.02
2022-12-11T02:38:10.554Z,32.90
2022-12-11T02:40:40.370Z,31.92
2022-12-11T02:43:12.290Z,31.30
2022-12-11T02:45:42.280Z,33.97
2022-12-11T02:48:11.929Z,30.75
2022-12-11T02:50:45.566Z,31.40
2022-12-11T02:53:16.667Z,32.75
2022-12-11T02:55:46.036Z,32.75
2022-12-11T02:58:18.756Z,31.35
2022-12-11T03:00:46.910Z,31.75
2022-12-11T03:03:14.516Z,32.75
2022-12-11T03:05:42.763Z,31.83
2022-12-11T03:08:10.352Z,32.42
2022-12-11T03:10:37.384Z,30.27
2022-12-11T03:13:05.287Z,27.40
2022-12-11T03:15:47.339Z,28.45
2022-12-11T03:18:40.570Z,30.88
2022-12-11T03:21:52.983Z,34.65
2022-12-11T03:24:53.565Z,33.83
2022-12-11T03:27:37.162Z,31.42
2022-12-11T03:30:20.066Z,31.08
2022-12-11T03:33:12.531Z,40.72
2022-12-11T03:35:43.658Z,40.15
2022-12-11T03:38:17.476Z,38.08
2022-12-11T03:40:48.789Z,26.87
2022-12-11T03:43:17.452Z,33.08
2022-12-11T03:45:47.214Z,33.80
2022-12-11T03:48:16.153Z,38.33
2022-12-11T03:50:44.013Z,37.38
2022-12-11T03:53:11.559Z,36.28
2022-12-11T03:55:40.393Z,36.72
2022-12-11T03:58:07.154Z,36.75
2022-12-11T04:00:34.266Z,37.63
2022-12-11T04:03:13.862Z,39.05
2022-12-11T04:05:47.402Z,37.00
2022-12-11T04:08:15.068Z,39.67
2022-12-11T04:10:42.314Z,35.67
2022-12-11T04:13:10.970Z,36.40
2022-12-11T04:15:39.952Z,35.67
2022-12-11T04:18:46.847Z,32.13
2022-12-11T04:21:37.803Z,31.52
2022-12-11T04:24:16.242Z,35.38
2022-12-11T04:26:45.297Z,30.58
2022-12-11T04:29:12.828Z,30.40
2022-12-11T04:31:39.691Z,31.73
2022-12-11T04:34:07.129Z,31.85
2022-12-11T04:36:33.912Z,30.77
2022-12-11T04:39:00.779Z,32.67
2022-12-11T04:41:27.855Z,34.10
2022-12-11T04:43:54.619Z,31.08
2022-12-11T04:46:24.120Z,32.13
2022-12-11T04:48:57.004Z,30.52
2022-12-11T04:51:24.630Z,35.72
2022-12-11T04:53:51.773Z,31.30
2022-12-11T04:56:18.648Z,33.95
2022-12-11T04:58:48.026Z,34.65
2022-12-11T05:01:19.167Z,35.92
2022-12-11T05:03:47.250Z,36.83
2022-12-11T05:06:15.153Z,34.38
2022-12-11T05:08:43.510Z,35.45
2022-12-11T05:11:13.582Z,36.08
2022-12-11T05:13:41.276Z,36.33
2022-12-11T05:16:10.786Z,34.75
2022-12-11T05:18:37.761Z,33.72
2022-12-11T05:21:09.309Z,36.08
2022-12-11T05:23:37.619Z,35.17
2022-12-11T05:26:13.799Z,32.72
2022-12-11T05:28:40.714Z,35.85
2022-12-11T05:31:19.895Z,34.92
2022-12-11T05:33:49.154Z,38.50
2022-12-11T05:36:32.242Z,35.55
2022-12-11T05:39:01.252Z,37.92
2022-12-11T05:41:30.482Z,36.15
2022-12-11T05:43:57.536Z,36.47
2022-12-11T05:46:27.314Z,38.58
2022-12-11T05:48:58.170Z,36.88
2022-12-11T05:51:25.705Z,33.92
2022-12-11T05:53:54.926Z,35.35
2022-12-11T05:56:34.076Z,36.78
2022-12-11T05:59:02.640Z,40.00
2022-12-11T06:01:38.005Z,41.20
2022-12-11T06:04:07.541Z,40.97
2022-12-11T06:06:37.525Z,49.88
2022-12-11T06:09:06.050Z,42.97
2022-12-11T06:11:34.885Z,48.25
2022-12-11T06:14:03.825Z,43.47
2022-12-11T06:16:30.972Z,47.10
2022-12-11T06:18:58.691Z,48.50
2022-12-11T06:21:32.715Z,51.88
2022-12-11T06:24:03.769Z,52.27
2022-12-11T06:26:30.602Z,49.97
2022-12-11T06:28:57.438Z,53.13
2022-12-11T06:31:24.520Z,55.60
2022-12-11T06:33:51.389Z,58.50
2022-12-11T06:36:22.198Z,58.10
2022-12-11T06:38:49.809Z,52.63
2022-12-11T06:41:16.796Z,54.53
2022-12-11T06:43:43.772Z,56.30
2022-12-11T06:46:14.972Z,59.55
2022-12-11T06:48:45.163Z,59.03
2022-12-11T06:51:22.457Z,58.63
2022-12-11T06:53:55.653Z,57.95
2022-12-11T06:56:23.722Z,60.42
2022-12-11T06:58:51.794Z,54.95
2022-12-11T07:01:23.593Z,58.13
2022-12-11T07:03:54.404Z,63.30
2022-12-11T07:06:21.746Z,64.85
2022-12-11T07:08:48.644Z,62.40
2022-12-11T07:11:18.323Z,60.78
2022-12-11T07:13:45.230Z,60.25
2022-12-11T07:16:14.220Z,56.10
2022-12-11T07:18:49.207Z,55.45
2022-12-11T07:21:16.278Z,55.92
2022-12-11T07:23:43.440Z,61.42
2022-12-11T07:26:14.597Z,63.25
2022-12-11T07:28:42.206Z,55.05
2022-12-11T07:31:16.003Z,60.72
2022-12-11T07:33:43.713Z,56.30
2022-12-11T07:36:13.477Z,56.95
2022-12-11T07:38:40.674Z,59.35
2022-12-11T07:41:12.663Z,59.97
2022-12-11T07:43:40.251Z,59.60
2022-12-11T07:46:20.194Z,60.40
2022-12-11T07:48:48.365Z,60.97
2022-12-11T07:51:26.543Z,60.83
2022-12-11T07:53:57.252Z,63.47
2022-12-11T07:56:24.461Z,59.50
2022-12-11T07:58:52.427Z,63.67
2022-12-11T08:01:23.247Z,60.15
2022-12-11T08:03:50.954Z,58.13
2022-12-11T08:06:18.892Z,62.60
2022-12-11T08:08:45.718Z,60.80
2022-12-11T08:11:15.039Z,62.63
2022-12-11T08:13:43.359Z,56.40
2022-12-11T08:16:13.466Z,64.93
2022-12-11T08:18:42.094Z,57.88
2022-12-11T08:21:20.603Z,60.28
2022-12-11T08:23:48.718Z,60.63
2022-12-11T08:26:20.066Z,62.90
2022-12-11T08:28:46.983Z,60.85
2022-12-11T08:31:18.461Z,60.97
2022-12-11T08:33:46.026Z,59.13
2022-12-11T08:36:16.969Z,57.72
2022-12-11T08:38:44.041Z,62.67
2022-12-11T08:41:33.026Z,59.28
2022-12-11T08:44:01.874Z,60.03
2022-12-11T08:46:32.329Z,64.25
2022-12-11T08:48:59.910Z,64.40
2022-12-11T08:51:29.230Z,65.22
2022-12-11T08:53:59.116Z,60.60
2022-12-11T08:56:28.320Z,62.80
2022-12-11T08:58:55.989Z,62.08
2022-12-11T09:01:26.292Z,59.15
2022-12-11T09:03:55.026Z,58.58
2022-12-11T09:06:25.467Z,58.83
2022-12-11T09:08:53.704Z,60.92
2022-12-11T09:11:27.624Z,66.82
2022-12-11T09:13:55.894Z,59.13
2022-12-11T09:16:27.273Z,62.00
2022-12-11T09:18:57.283Z,61.72
2022-12-11T09:21:28.364Z,63.40
2022-12-11T09:23:58.772Z,60.95
2022-12-11T09:26:27.242Z,57.63
2022-12-11T09:28:55.026Z,57.67
2022-12-11T09:31:30.228Z,55.60
2022-12-11T09:34:04.407Z,58.90
2022-12-11T09:36:31.860Z,62.25
2022-12-11T09:39:06.166Z,56.65
2022-12-11T09:41:37.837Z,60.53
2022-12-11T09:44:21.652Z,58.90
2022-12-11T09:46:50.207Z,60.70
2022-12-11T09:49:38.131Z,59.08
2022-12-11T09:52:20.802Z,52.65
2022-12-11T09:54:55.268Z,58.03
2022-12-11T09:58:03.691Z,61.20
2022-12-11T10:00:47.906Z,56.67
2022-12-11T10:04:04.514Z,60.08
2022-12-11T10:06:45.824Z,62.80
2022-12-11T10:09:33.791Z,58.70
2022-12-11T10:12:17.763Z,56.65
2022-12-11T10:15:06.184Z,55.45
2022-12-11T10:17:35.462Z,55.00
2022-12-11T10:20:45.815Z,55.72
2022-12-11T10:23:21.763Z,55.50
2022-12-11T10:25:56.158Z,53.40
2022-12-11T10:28:23.412Z,53.97
2022-12-11T10:31:24.862Z,48.97
2022-12-11T10:34:01.958Z,54.60
2022-12-11T10:36:36.914Z,51.28
2022-12-11T10:39:10.485Z,50.58
2022-12-11T10:41:42.161Z,51.42
2022-12-11T10:44:25.429Z,51.42
2022-12-11T10:47:06.258Z,51.13
2022-12-11T10:49:35.951Z,50.33
2022-12-11T10:52:32.278Z,50.42
2022-12-11T10:55:40.052Z,50.33
2022-12-11T10:58:07.826Z,48.97
2022-12-11T11:00:39.352Z,50.30
2022-12-11T11:03:24.385Z,49.75
2022-12-11T11:06:17.527Z,46.80
2022-12-11T11:08:51.752Z,47.78
2022-12-11T11:11:34.435Z,46.78
2022-12-11T11:14:20.164Z,46.00
2022-12-11T11:16:54.631Z,46.30
2022-12-11T11:19:31.772Z,48.13
2022-12-11T11:22:13.099Z,51.60
2022-12-11T11:24:52.365Z,53.38
2022-12-11T11:27:39.721Z,51.25
2022-12-11T11:30:32.354Z,48.65
2022-12-11T11:33:04.841Z,46.45
2022-12-11T11:35:32.636Z,45.70
2022-12-11T11:38:22.633Z,45.05
2022-12-11T11:41:06.617Z,40.80
2022-12-11T11:44:16.313Z,41.47
2022-12-11T11:46:49.483Z,42.05
2022-12-11T11:49:32.842Z,40.83
2022-12-11T11:52:12.818Z,39.38
2022-12-11T11:54:51.341Z,41.92
2022-12-11T11:57:36.121Z,40.33
2022-12-11T12:00:33.387Z,41.33
2022-12-11T12:03:13.594Z,43.92
2022-12-11T12:06:14.724Z,40.40
2022-12-11T12:09:04.309Z,38.42
2022-12-11T12:11:49.757Z,40.95
2022-12-11T12:17:38.173Z,42.85
2022-12-11T12:20:28.625Z,41.53
2022-12-11T12:23:36.602Z,45.78
2022-12-11T12:26:39.320Z,47.58
2022-12-11T12:29:30.486Z,45.22
2022-12-11T12:32:15.378Z,47.60
2022-12-11T12:35:19.646Z,49.05
2022-12-11T12:37:55.755Z,45.95
2022-12-11T12:40:47.270Z,45.60
2022-12-11T12:43:35.580Z,48.92
2022-12-11T12:46:11.550Z,45.58
2022-12-11T12:48:39.080Z,48.75
2022-12-11T12:51:07.072Z,46.70
2022-12-11T12:53:37.593Z,46.00
2022-12-11T12:56:06.335Z,45.13
2022-12-11T12:58:36.099Z,43.28
2022-12-11T13:01:16.022Z,39.90
2022-12-11T13:03:58.495Z,41.42
2022-12-11T13:06:31.635Z,39.33
2022-12-11T13:08:58.790Z,42.10
2022-12-11T13:11:35.262Z,41.65
2022-12-11T13:14:14.242Z,43.45
2022-12-11T13:16:50.554Z,42.22
2022-12-11T13:19:23.480Z,43.47
2022-12-11T13:22:05.349Z,43.08
2022-12-11T13:24:34.116Z,41.00
2022-12-11T13:27:46.123Z,41.30
2022-12-11T13:30:15.962Z,42.25
2022-12-11T13:33:15.144Z,44.83
2022-12-11T13:35:42.090Z,41.78
2022-12-11T13:38:20.245Z,43.85
2022-12-11T13:40:55.540Z,42.30
2022-12-11T13:43:29.511Z,44.90
2022-12-11T13:46:02.490Z,45.10
2022-12-11T13:48:37.267Z,43.72
2022-12-11T13:53:32.626Z,41.05
2022-12-11T13:56:06.294Z,41.17
2022-12-11T13:58:39.888Z,41.03
2022-12-11T14:01:11.539Z,42.22
2022-12-11T14:03:51.683Z,40.85
2022-12-11T14:06:19.138Z,39.63
2022-12-11T14:08:50.957Z,39.42
2022-12-11T14:11:30.122Z,39.58
2022-12-11T14:14:05.136Z,40.28
2022-12-11T14:16:32.830Z,41.72
2022-12-11T14:19:06.587Z,39.83
2022-12-11T14:21:38.025Z,42.78
2022-12-11T14:24:06.712Z,42.72
2022-12-11T14:26:38.131Z,37.28
2022-12-11T14:29:06.724Z,42.55
2022-12-11T14:31:38.135Z,40.05
2022-12-11T14:34:35.378Z,40.88
2022-12-11T14:37:06.639Z,44.08
2022-12-11T14:39:41.454Z,43.78
2022-12-11T14:44:55.533Z,44.03
2022-12-11T14:47:31.158Z,41.72
2022-12-11T14:50:15.900Z,40.95
2022-12-11T14:52:48.771Z,39.65
2022-12-11T14:55:25.366Z,39.08
2022-12-11T14:57:57.929Z,42.05
2022-12-11T15:01:00.852Z,43.03
2022-12-11T15:03:38.714Z,44.08
2022-12-11T15:06:29.249Z,42.83
2022-12-11T15:08:56.275Z,41.17
2022-12-11T15:11:25.348Z,41.30
2022-12-11T15:14:01.949Z,40.22
2022-12-11T15:16:33.696Z,41.90
2022-12-11T15:19:02.125Z,40.40
2022-12-11T15:21:35.726Z,40.70
2022-12-11T15:24:05.827Z,40.20
2022-12-11T15:26:47.989Z,40.60
2022-12-11T15:29:39.355Z,38.97
2022-12-11T15:32:09.128Z,36.92
2022-12-11T15:34:43.813Z,39.30
2022-12-11T15:40:18.535Z,37.17
2022-12-11T15:42:45.551Z,47.20
2022-12-11T15:45:22.007Z,44.97
2022-12-11T15:47:50.380Z,46.03
2022-12-11T15:50:28.938Z,44.25
2022-12-11T15:52:57.192Z,44.35
2022-12-11T15:55:27.166Z,42.38
2022-12-11T15:58:02.482Z,39.90
2022-12-11T16:00:29.483Z,40.63
2022-12-11T16:02:58.200Z,41.35
2022-12-11T16:05:26.907Z,43.55
2022-12-11T16:07:54.889Z,41.47
2022-12-11T16:10:22.427Z,40.67
2022-12-11T16:12:49.255Z,42.05
2022-12-11T16:15:23.183Z,40.70
2022-12-11T16:20:18.905Z,39.40
2022-12-11T16:22:45.659Z,39.53
2022-12-11T16:25:12.796Z,39.92
2022-12-11T16:27:39.772Z,39.45
2022-12-11T16:30:07.391Z,38.55
2022-12-11T16:32:34.627Z,38.75
2022-12-11T16:35:01.611Z,36.97
2022-12-11T16:37:28.899Z,39.40
2022-12-11T16:39:55.962Z,37.42
2022-12-11T16:42:22.719Z,37.72
2022-12-11T16:44:49.562Z,36.90
2022-12-11T16:47:16.329Z,35.95
2022-12-11T16:49:45.804Z,37.65
2022-12-11T16:52:16.361Z,37.28
2022-12-11T16:54:45.820Z,48.17
2022-12-11T16:57:12.595Z,50.45
2022-12-11T16:59:39.409Z,38.80
2022-12-11T17:02:06.635Z,40.80
2022-12-11T17:04:33.553Z,39.03
2022-12-11T17:07:00.330Z,39.88
2022-12-11T17:09:27.122Z,35.28
2022-12-11T17:11:53.882Z,38.35
2022-12-11T17:14:20.698Z,38.38
2022-12-11T17:16:48.281Z,41.13
2022-12-11T17:19:16.675Z,40.50
2022-12-11T17:21:47.109Z,36.88
2022-12-11T17:24:18.492Z,38.35
2022-12-11T17:26:45.448Z,38.67
2022-12-11T17:29:13.638Z,41.42
2022-12-11T17:31:40.850Z,43.67
2022-12-11T17:34:07.663Z,39.72
2022-12-11T17:36:34.910Z,41.67
2022-12-11T17:39:01.759Z,44.42
2022-12-11T17:41:28.604Z,41.88
2022-12-11T17:43:55.958Z,44.35
2022-12-11T17:46:23.309Z,41.67
2022-12-11T17:48:50.186Z,40.17
2022-12-11T17:51:24.064Z,39.15
2022-12-11T17:53:53.574Z,30.05
2022-12-11T17:56:20.449Z,40.30
2022-12-11T17:58:47.475Z,41.30
2022-12-11T18:01:14.933Z,39.22
2022-12-11T18:03:42.019Z,41.05
2022-12-11T18:06:14.737Z,41.15
2022-12-11T18:08:43.116Z,45.15
2022-12-11T18:11:19.564Z,38.45
2022-12-11T18:13:46.797Z,50.10
2022-12-11T18:16:19.424Z,42.45
2022-12-11T18:18:48.317Z,41.38
2022-12-11T18:21:22.764Z,43.38
2022-12-11T18:23:50.549Z,41.05
2022-12-11T18:26:19.238Z,38.92
2022-12-11T18:28:47.816Z,41.72
2022-12-11T18:31:15.193Z,43.85
2022-12-11T18:33:44.215Z,45.05
2022-12-11T18:36:14.195Z,45.08
2022-12-11T18:38:42.455Z,47.30
2022-12-11T18:41:12.007Z,45.88
2022-12-11T18:43:39.518Z,46.08
2022-12-11T18:46:14.263Z,53.10
2022-12-11T18:48:43.142Z,61.28
2022-12-11T18:51:15.101Z,56.10
2022-12-11T18:53:41.951Z,49.35
2022-12-11T18:56:13.347Z,47.58
2022-12-11T18:58:40.717Z,54.05
2022-12-11T19:01:18.446Z,55.35
2022-12-11T19:03:45.827Z,58.83
2022-12-11T19:06:19.935Z,59.60
2022-12-11T19:08:47.227Z,43.95
2022-12-11T19:11:20.581Z,50.63
2022-12-11T19:13:48.606Z,55.55
2022-12-11T19:16:22.316Z,51.38
2022-12-11T19:18:50.034Z,50.63
2022-12-11T19:21:18.184Z,54.15
2022-12-11T19:23:46.223Z,50.28
2022-12-11T19:26:19.373Z,51.80
2022-12-11T19:28:47.584Z,50.15
2022-12-11T19:31:22.236Z,48.55
2022-12-11T19:36:21.536Z,43.15
2022-12-11T19:38:49.196Z,44.83
2022-12-11T19:41:23.550Z,44.70
2022-12-11T19:43:51.418Z,46.97
2022-12-11T19:46:20.036Z,43.25
2022-12-11T19:48:50.203Z,42.90
2022-12-11T19:51:23.754Z,43.78
2022-12-11T19:53:50.962Z,47.15
2022-12-11T19:56:19.209Z,42.55
2022-12-11T19:58:46.935Z,52.88
2022-12-11T20:01:25.178Z,51.72
2022-12-11T20:03:58.860Z,46.80
2022-12-11T20:06:38.845Z,60.20
2022-12-11T20:09:10.839Z,46.83
2022-12-11T20:11:42.944Z,48.40
2022-12-11T20:14:20.714Z,47.20
2022-12-11T20:19:35.365Z,45.53
2022-12-11T20:22:02.311Z,46.20
2022-12-11T20:24:29.722Z,45.22
2022-12-11T20:26:57.349Z,45.95
2022-12-11T20:29:24.327Z,46.17
2022-12-11T20:31:51.845Z,44.47
2022-12-11T20:34:20.178Z,49.03
2022-12-11T20:36:53.006Z,43.75
2022-12-11T20:39:19.874Z,46.03
2022-12-11T20:41:46.861Z,39.22
2022-12-11T20:44:13.727Z,44.78
2022-12-11T20:46:40.961Z,40.28
2022-12-11T20:49:12.931Z,42.30
2022-12-11T20:51:41.193Z,43.00
2022-12-11T20:54:08.517Z,42.50
2022-12-11T20:56:36.274Z,41.25
2022-12-11T20:59:03.457Z,41.97
2022-12-11T21:01:33.214Z,41.88
2022-12-11T21:04:00.709Z,38.95
2022-12-11T21:06:34.874Z,40.60
2022-12-11T21:09:07.691Z,42.17
2022-12-11T21:11:35.032Z,38.80
2022-12-11T21:14:02.028Z,41.97
2022-12-11T21:16:29.570Z,38.03
2022-12-11T21:18:58.016Z,39.25
2022-12-11T21:21:26.361Z,36.47
2022-12-11T21:23:53.281Z,39.45
2022-12-11T21:26:20.167Z,38.13
2022-12-11T21:28:46.923Z,35.72
2022-12-11T21:31:17.070Z,40.40
2022-12-11T21:33:44.348Z,44.97
2022-12-11T21:36:13.613Z,37.35
2022-12-11T21:38:43.892Z,35.67
2022-12-11T21:41:16.343Z,41.22
2022-12-11T21:44:56.686Z,38.67
2022-12-11T21:46:34.053Z,38.05
2022-12-11T21:49:00.876Z,36.90
2022-12-11T21:51:37.996Z,46.17
2022-12-11T21:54:10.392Z,42.03
2022-12-11T21:56:37.197Z,36.85
2022-12-11T21:59:04.206Z,38.78
2022-12-11T22:01:37.302Z,39.03
2022-12-11T22:04:05.634Z,39.45
2022-12-11T22:06:33.041Z,37.80
2022-12-11T22:09:00.433Z,37.28
2022-12-11T22:11:32.259Z,36.92
2022-12-11T22:13:59.563Z,38.97
2022-12-11T22:16:26.545Z,36.65
2022-12-11T22:18:53.481Z,40.83
2022-12-11T22:21:20.932Z,39.38
2022-12-11T22:23:48.380Z,35.33
2022-12-11T22:26:23.332Z,39.65
2022-12-11T22:28:51.501Z,39.28
2022-12-11T22:31:21.558Z,40.28
2022-12-11T22:33:54.034Z,36.42
2022-12-11T22:36:22.486Z,38.25
2022-12-11T22:38:49.595Z,37.75
2022-12-11T22:41:23.248Z,38.17
2022-12-11T22:43:50.939Z,39.67
2022-12-11T22:46:20.887Z,35.90
2022-12-11T22:48:47.773Z,34.72
2022-12-11T22:51:14.620Z,35.03
2022-12-11T22:53:41.419Z,34.55
2022-12-11T22:56:10.971Z,36.08
2022-12-11T22:58:38.332Z,35.13
2022-12-11T23:01:16.814Z,34.63
2022-12-11T23:03:43.893Z,35.00
2022-12-11T23:06:20.957Z,34.75
2022-12-11T23:08:48.173Z,34.35
2022-12-11T23:11:26.682Z,35.40
2022-12-11T23:13:54.892Z,33.33
2022-12-11T23:16:24.466Z,33.60
2022-12-11T23:18:51.755Z,34.28
2022-12-11T23:21:18.712Z,34.60
2022-12-11T23:23:45.918Z,33.95
2022-12-11T23:26:14.697Z,32.13
2022-12-11T23:28:42.178Z,32.80
2022-12-11T23:31:09.980Z,33.97
2022-12-11T23:33:37.777Z,35.88
2022-12-11T23:36:05.876Z,33.63
2022-12-11T23:38:33.192Z,35.17
2022-12-11T23:41:02.498Z,34.05
2022-12-11T23:43:29.960Z,34.65
2022-12-11T23:45:57.854Z,32.95
2022-12-11T23:48:24.755Z,35.13
2022-12-11T23:50:52.059Z,35.78
2022-12-11T23:53:19.094Z,37.25
2022-12-11T23:55:46.223Z,37.72
2022-12-11T23:58:13.649Z,36.75
